PWSweather.com
Personal Weather Stations
Station Observations
OAK1E
Piedmont Ave District, Oakland, CA 94611

Piedmont Ave DistrictOakland, CA 94611

Lat: 37.832205, Lon: -122.250229

Elevation: 176

Station Type: Davis Vantage Pro 2

http://www.mayacamaswx.com/Oakland1E/Oakland1E.htm

Latest ConditionsUpdated 5:24:03 AM PDT Thursday, Jun 29, 2017
Currently Today's Max Today's Min Today's Average
Temperature 55.5°F13.1°C 56.8°F13.8°C 55.5°F13.1°C 55.9°F13.3°C
Dew Point 51.7°F10.9°C 52.7°F11.5°C 51.7°F10.9°C 52.2°F11.2°C
Winds Calm Calm 2.0 mph W3.2 kmh W - 0.3 mph 0.5 kmh
Wind Gusts -- 3.6 mph5.8 kmh - -
Humidity 87% 88% 85% 87%
Pressure 29.93 in1013.5 mb 29.94 in1013.9 mb 29.92 in1013.2 mb -
Hour Temp Dew Point Humidity Winds Wind Gusts Pressure Precip Precip Rate Daily Precip Total
05:24 AM 55.5°F13.1°C 51.7°F10.9°C 87% Calm Calm -- 29.93 in1013.5 mb 0.00 in0.0 mm 0.00 in0.0 mm 0.00 in0.0 mm
05:19 AM 55.5°F13.1°C 51.7°F10.9°C 87% Calm Calm 1.2 mph1.9 kmh 29.93 in1013.5 mb 0.00 in0.0 mm 0.00 in0.0 mm 0.00 in0.0 mm
05:14 AM 55.5°F13.1°C 51.7°F10.9°C 87% 1.0 mph SSE1.6 kmh SSE 1.2 mph1.9 kmh 29.93 in1013.5 mb 0.00 in0.0 mm 0.00 in0.0 mm 0.00 in0.0 mm
05:09 AM 55.5°F13.1°C 51.7°F10.9°C 87% Calm Calm 2.4 mph3.9 kmh 29.94 in1013.9 mb 0.00 in0.0 mm 0.00 in0.0 mm 0.00 in0.0 mm
05:04 AM 55.5°F13.1°C 51.7°F10.9°C 87% Calm Calm 2.4 mph3.9 kmh 29.93 in1013.5 mb 0.00 in0.0 mm 0.00 in0.0 mm 0.00 in0.0 mm
04:59 AM 55.6°F13.1°C 51.8°F11.0°C 87% Calm Calm 2.4 mph3.9 kmh 29.93 in1013.5 mb 0.00 in0.0 mm 0.00 in0.0 mm 0.00 in0.0 mm
04:54 AM 55.6°F13.1°C 51.8°F11.0°C 87% Calm Calm 2.4 mph3.9 kmh 29.93 in1013.5 mb 0.00 in0.0 mm 0.00 in0.0 mm 0.00 in0.0 mm
04:49 AM 55.5°F13.1°C 51.7°F10.9°C 87% Calm Calm 2.4 mph3.9 kmh 29.93 in1013.5 mb 0.00 in0.0 mm 0.00 in0.0 mm 0.00 in0.0 mm
04:44 AM 55.5°F13.1°C 51.7°F10.9°C 87% 1.0 mph SW1.6 kmh SW 2.4 mph3.9 kmh 29.93 in1013.5 mb 0.00 in0.0 mm 0.00 in0.0 mm 0.00 in0.0 mm
04:39 AM 55.5°F13.1°C 51.7°F10.9°C 87% Calm Calm 2.4 mph3.9 kmh 29.93 in1013.5 mb 0.00 in0.0 mm 0.00 in0.0 mm 0.00 in0.0 mm
04:34 AM 55.5°F13.1°C 51.7°F10.9°C 87% Calm Calm 1.2 mph1.9 kmh 29.93 in1013.5 mb 0.00 in0.0 mm 0.00 in0.0 mm 0.00 in0.0 mm
04:29 AM 55.5°F13.1°C 51.7°F10.9°C 87% Calm Calm 1.2 mph1.9 kmh 29.93 in1013.5 mb 0.00 in0.0 mm 0.00 in0.0 mm 0.00 in0.0 mm
04:24 AM 55.6°F13.1°C 51.8°F11.0°C 87% Calm Calm 1.2 mph1.9 kmh 29.93 in1013.5 mb 0.00 in0.0 mm 0.00 in0.0 mm 0.00 in0.0 mm
04:19 AM 55.6°F13.1°C 52.1°F11.2°C 88% Calm Calm 1.2 mph1.9 kmh 29.93 in1013.5 mb 0.00 in0.0 mm 0.00 in0.0 mm 0.00 in0.0 mm
04:14 AM 55.6°F13.1°C 52.1°F11.2°C 88% Calm Calm 2.4 mph3.9 kmh 29.93 in1013.5 mb 0.00 in0.0 mm 0.00 in0.0 mm 0.00 in0.0 mm
04:09 AM 55.6°F13.1°C 52.1°F11.2°C 88% 1.0 mph WSW1.6 kmh WSW 2.4 mph3.9 kmh 29.93 in1013.5 mb 0.00 in0.0 mm 0.00 in0.0 mm 0.00 in0.0 mm
04:04 AM 55.6°F13.1°C 52.1°F11.2°C 88% Calm Calm 2.4 mph3.9 kmh 29.93 in1013.5 mb 0.00 in0.0 mm 0.00 in0.0 mm 0.00 in0.0 mm
03:59 AM 55.6°F13.1°C 52.1°F11.2°C 88% Calm Calm 2.4 mph3.9 kmh 29.93 in1013.5 mb 0.00 in0.0 mm 0.00 in0.0 mm 0.00 in0.0 mm
03:54 AM 55.6°F13.1°C 52.1°F11.2°C 88% 1.0 mph WSW1.6 kmh WSW 1.2 mph1.9 kmh 29.92 in1013.2 mb 0.00 in0.0 mm 0.00 in0.0 mm 0.00 in0.0 mm
03:49 AM 55.6°F13.1°C 52.1°F11.2°C 88% 1.0 mph WSW1.6 kmh WSW 1.2 mph1.9 kmh 29.93 in1013.5 mb 0.00 in0.0 mm 0.00 in0.0 mm 0.00 in0.0 mm
03:44 AM 55.7°F13.2°C 52.2°F11.2°C 88% Calm Calm 3.6 mph5.8 kmh 29.93 in1013.5 mb 0.00 in0.0 mm 0.00 in0.0 mm 0.00 in0.0 mm
03:39 AM 55.7°F13.2°C 52.2°F11.2°C 88% Calm Calm 3.6 mph5.8 kmh 29.93 in1013.5 mb 0.00 in0.0 mm 0.00 in0.0 mm 0.00 in0.0 mm
03:34 AM 55.7°F13.2°C 52.2°F11.2°C 88% 1.0 mph SW1.6 kmh SW 2.4 mph3.9 kmh 29.92 in1013.2 mb 0.00 in0.0 mm 0.00 in0.0 mm 0.00 in0.0 mm
03:29 AM 55.7°F13.2°C 52.2°F11.2°C 88% Calm Calm 2.4 mph3.9 kmh 29.92 in1013.2 mb 0.00 in0.0 mm 0.00 in0.0 mm 0.00 in0.0 mm
03:24 AM 55.7°F13.2°C 52.2°F11.2°C 88% Calm Calm 2.4 mph3.9 kmh 29.92 in1013.2 mb 0.00 in0.0 mm 0.00 in0.0 mm 0.00 in0.0 mm
03:19 AM 55.7°F13.2°C 52.2°F11.2°C 88% Calm Calm 1.2 mph1.9 kmh 29.92 in1013.2 mb 0.00 in0.0 mm 0.00 in0.0 mm 0.00 in0.0 mm
03:14 AM 55.7°F13.2°C 52.2°F11.2°C 88% Calm Calm 1.2 mph1.9 kmh 29.92 in1013.2 mb 0.00 in0.0 mm 0.00 in0.0 mm 0.00 in0.0 mm
03:09 AM 55.7°F13.2°C 52.2°F11.2°C 88% 1.0 mph WSW1.6 kmh WSW 2.4 mph3.9 kmh 29.92 in1013.2 mb 0.00 in0.0 mm 0.00 in0.0 mm 0.00 in0.0 mm
03:04 AM 55.7°F13.2°C 52.2°F11.2°C 88% 1.0 mph SE1.6 kmh SE 2.4 mph3.9 kmh 29.92 in1013.2 mb 0.00 in0.0 mm 0.00 in0.0 mm 0.00 in0.0 mm
02:59 AM 55.7°F13.2°C 52.2°F11.2°C 88% Calm Calm 2.4 mph3.9 kmh 29.92 in1013.2 mb 0.00 in0.0 mm 0.00 in0.0 mm 0.00 in0.0 mm
02:54 AM 55.7°F13.2°C 52.2°F11.2°C 88% Calm Calm 1.2 mph1.9 kmh 29.93 in1013.5 mb 0.00 in0.0 mm 0.00 in0.0 mm 0.00 in0.0 mm
02:49 AM 55.8°F13.2°C 52.3°F11.3°C 88% Calm Calm 2.4 mph3.9 kmh 29.93 in1013.5 mb 0.00 in0.0 mm 0.00 in0.0 mm 0.00 in0.0 mm
02:44 AM 55.8°F13.2°C 52.3°F11.3°C 88% 1.0 mph SW1.6 kmh SW 2.4 mph3.9 kmh 29.93 in1013.5 mb 0.00 in0.0 mm 0.00 in0.0 mm 0.00 in0.0 mm
02:39 AM 55.8°F13.2°C 52.3°F11.3°C 88% Calm Calm 1.2 mph1.9 kmh 29.93 in1013.5 mb 0.00 in0.0 mm 0.00 in0.0 mm 0.00 in0.0 mm
02:34 AM 55.8°F13.2°C 52.3°F11.3°C 88% Calm Calm 3.6 mph5.8 kmh 29.93 in1013.5 mb 0.00 in0.0 mm 0.00 in0.0 mm 0.00 in0.0 mm
02:29 AM 55.8°F13.2°C 52.3°F11.3°C 88% Calm Calm 3.6 mph5.8 kmh 29.93 in1013.5 mb 0.00 in0.0 mm 0.00 in0.0 mm 0.00 in0.0 mm
02:24 AM 55.8°F13.2°C 52.3°F11.3°C 88% 1.0 mph SW1.6 kmh SW 1.2 mph1.9 kmh 29.93 in1013.5 mb 0.00 in0.0 mm 0.00 in0.0 mm 0.00 in0.0 mm
02:19 AM 55.9°F13.3°C 52.4°F11.3°C 88% Calm Calm 1.2 mph1.9 kmh 29.93 in1013.5 mb 0.00 in0.0 mm 0.00 in0.0 mm 0.00 in0.0 mm
02:14 AM 55.9°F13.3°C 52.4°F11.3°C 88% Calm Calm 3.6 mph5.8 kmh 29.93 in1013.5 mb 0.00 in0.0 mm 0.00 in0.0 mm 0.00 in0.0 mm
02:09 AM 56.0°F13.3°C 52.5°F11.4°C 88% 1.0 mph SSW1.6 kmh SSW 2.4 mph3.9 kmh 29.92 in1013.2 mb 0.00 in0.0 mm 0.00 in0.0 mm 0.00 in0.0 mm
02:04 AM 56.0°F13.3°C 52.5°F11.4°C 88% 1.0 mph SSW1.6 kmh SSW 2.4 mph3.9 kmh 29.92 in1013.2 mb 0.00 in0.0 mm 0.00 in0.0 mm 0.00 in0.0 mm
01:59 AM 56.1°F13.4°C 52.3°F11.3°C 87% Calm Calm 2.4 mph3.9 kmh 29.92 in1013.2 mb 0.00 in0.0 mm 0.00 in0.0 mm 0.00 in0.0 mm
01:54 AM 56.1°F13.4°C 52.3°F11.3°C 87% Calm Calm 2.4 mph3.9 kmh 29.92 in1013.2 mb 0.00 in0.0 mm 0.00 in0.0 mm 0.00 in0.0 mm
01:49 AM 56.2°F13.4°C 52.4°F11.3°C 87% 1.0 mph S1.6 kmh S 2.4 mph3.9 kmh 29.93 in1013.5 mb 0.00 in0.0 mm 0.00 in0.0 mm 0.00 in0.0 mm
01:44 AM 56.2°F13.4°C 52.4°F11.3°C 87% 1.0 mph W1.6 kmh W 2.4 mph3.9 kmh 29.93 in1013.5 mb 0.00 in0.0 mm 0.00 in0.0 mm 0.00 in0.0 mm
01:39 AM 56.3°F13.5°C 52.5°F11.4°C 87% Calm Calm 2.4 mph3.9 kmh 29.93 in1013.5 mb 0.00 in0.0 mm 0.00 in0.0 mm 0.00 in0.0 mm
01:34 AM 56.3°F13.5°C 52.2°F11.2°C 86% 2.0 mph W3.2 kmh W 2.4 mph3.9 kmh 29.93 in1013.5 mb 0.00 in0.0 mm 0.00 in0.0 mm 0.00 in0.0 mm
01:29 AM 56.3°F13.5°C 52.2°F11.2°C 86% 1.0 mph W1.6 kmh W 1.2 mph1.9 kmh 29.93 in1013.5 mb 0.00 in0.0 mm 0.00 in0.0 mm 0.00 in0.0 mm
01:24 AM 56.3°F13.5°C 52.5°F11.4°C 87% 1.0 mph W1.6 kmh W 1.2 mph1.9 kmh 29.93 in1013.5 mb 0.00 in0.0 mm 0.00 in0.0 mm 0.00 in0.0 mm
01:19 AM 56.3°F13.5°C 52.2°F11.2°C 86% Calm Calm 1.2 mph1.9 kmh 29.93 in1013.5 mb 0.00 in0.0 mm 0.00 in0.0 mm 0.00 in0.0 mm
01:14 AM 56.3°F13.5°C 52.2°F11.2°C 86% Calm Calm 1.2 mph1.9 kmh 29.93 in1013.5 mb 0.00 in0.0 mm 0.00 in0.0 mm 0.00 in0.0 mm
01:09 AM 56.3°F13.5°C 52.2°F11.2°C 86% Calm Calm 1.2 mph1.9 kmh 29.93 in1013.5 mb 0.00 in0.0 mm 0.00 in0.0 mm 0.00 in0.0 mm
01:04 AM 56.4°F13.6°C 52.3°F11.3°C 86% Calm Calm 1.2 mph1.9 kmh 29.93 in1013.5 mb 0.00 in0.0 mm 0.00 in0.0 mm 0.00 in0.0 mm
12:59 AM 56.3°F13.5°C 52.2°F11.2°C 86% Calm Calm 1.2 mph1.9 kmh 29.93 in1013.5 mb 0.00 in0.0 mm 0.00 in0.0 mm 0.00 in0.0 mm
12:54 AM 56.4°F13.6°C 52.3°F11.3°C 86% Calm Calm 1.2 mph1.9 kmh 29.93 in1013.5 mb 0.00 in0.0 mm 0.00 in0.0 mm 0.00 in0.0 mm
12:49 AM 56.4°F13.6°C 52.3°F11.3°C 86% Calm Calm 1.2 mph1.9 kmh 29.93 in1013.5 mb 0.00 in0.0 mm 0.00 in0.0 mm 0.00 in0.0 mm
12:44 AM 56.4°F13.6°C 52.3°F11.3°C 86% Calm Calm 1.2 mph1.9 kmh 29.93 in1013.5 mb 0.00 in0.0 mm 0.00 in0.0 mm 0.00 in0.0 mm
12:39 AM 56.4°F13.6°C 52.3°F11.3°C 86% Calm Calm -- 29.93 in1013.5 mb 0.00 in0.0 mm 0.00 in0.0 mm 0.00 in0.0 mm
12:34 AM 56.5°F13.6°C 52.4°F11.3°C 86% Calm Calm 1.2 mph1.9 kmh 29.93 in1013.5 mb 0.00 in0.0 mm 0.00 in0.0 mm 0.00 in0.0 mm
12:29 AM 56.5°F13.6°C 52.4°F11.3°C 86% Calm Calm -- 29.93 in1013.5 mb 0.00 in0.0 mm 0.00 in0.0 mm 0.00 in0.0 mm
12:24 AM 56.6°F13.7°C 52.1°F11.2°C 85% Calm Calm 1.2 mph1.9 kmh 29.93 in1013.5 mb 0.00 in0.0 mm 0.00 in0.0 mm 0.00 in0.0 mm
12:19 AM 56.6°F13.7°C 52.1°F11.2°C 85% Calm Calm 1.2 mph1.9 kmh 29.93 in1013.5 mb 0.00 in0.0 mm 0.00 in0.0 mm 0.00 in0.0 mm
12:14 AM 56.7°F13.7°C 52.6°F11.4°C 86% Calm Calm 1.2 mph1.9 kmh 29.93 in1013.5 mb 0.00 in0.0 mm 0.00 in0.0 mm 0.00 in0.0 mm
12:09 AM 56.8°F13.8°C 52.7°F11.5°C 86% Calm Calm 1.2 mph1.9 kmh 29.93 in1013.5 mb 0.00 in0.0 mm 0.00 in0.0 mm 0.00 in0.0 mm
12:04 AM 56.8°F13.8°C 52.3°F11.3°C 85% Calm Calm 2.4 mph3.9 kmh 29.93 in1013.5 mb 0.00 in0.0 mm 0.00 in0.0 mm 0.00 in0.0 mm